Terminal Aerodrome Forecast
Issued by NWS

Home | Current Version | Previous Version | Text Only | Print | Product List | Glossary On
Versions: 1 2 3 4 5 6 7 8 9 10
000
FTUS42 TJSJ 251100
TAFNCM
TAF
TNCM 251135Z 2512/2612 07011KT P6SM VCSH FEW017
     FM251330 07014KT P6SM SCT022
     FM252300 08007KT P6SM VCSH SCT018 SCT035=

USA.gov is the U.S. government's official web portal to all federal, state and local government web resources and services.